Latest Weather Observations for Thargomindah

IDQ60801

Issued at 4:35 pm EST Thursday 28 August 2014 (issued every 30 minutes, with the page automatically refreshed every 10 minutes)

About weather observations | Map of weather stations | Latest weather observations for QLD | Other Formats
Station Details ID: 045025 Name: THARGOMINDAH AIRPORT Lat: -27.99 Lon: 143.81 Height: 130.89 m
Data from the previous 72 hours. | See also: Recent months at Thargomindah
Date/Time
EST
Temp
°C
App
Temp
°C
Dew
Point
Rel
Hum
%
Delta-T
°C
Wind Press
QNH
hPa
Press
MSL
hPa
Rain
since 9 am
mm
Dir
 
Spd
km/h
Gust
km/h
Spd
kts
Gust
kts
28/04:30pm 22.4 17.4 -1.0 21 10.4 SE 15 26 8 14 1022.5 - 0.0
28/04:00pm 22.6 16.6 -2.9 18 10.9 SSE 19 28 10 15 1022.6 - 0.0
28/03:30pm 22.6 16.1 -2.2 19 10.8 S 22 33 12 18 1022.6 - 0.0
28/03:00pm 22.2 16.4 0.1 23 10.0 SSE 20 30 11 16 1022.8 1022.6 0.0
28/02:30pm 22.3 17.9 0.2 23 10.1 S 13 26 7 14 1023.0 - 0.0
28/02:00pm 22.4 17.8 1.4 25 9.8 S 15 22 8 12 1023.3 - 0.0
28/01:30pm 22.0 18.1 1.1 25 9.7 SSE 11 22 6 12 1023.7 - 0.0
28/01:00pm 21.9 17.9 3.1 29 9.0 SSE 13 20 7 11 1024.1 - 0.0
28/12:30pm 21.8 17.6 3.9 31 8.7 SE 15 20 8 11 1024.5 - 0.0
28/12:00pm 20.8 15.7 3.1 31 8.4 SE 19 35 10 19 1025.0 1024.7 0.0
28/11:30am 20.7 17.0 4.7 35 7.8 ESE 13 24 7 13 1025.4 - 0.0
28/11:00am 20.2 16.5 6.2 40 7.0 ESE 15 20 8 11 1025.8 - 0.0
28/10:30am 18.9 15.7 6.7 45 6.1 ESE 13 20 7 11 1026.0 - 0.0
28/10:00am 18.0 14.8 6.8 48 5.6 ESE 13 20 7 11 1026.2 - 0.0
28/09:30am 16.9 13.7 6.7 51 5.1 ESE 13 19 7 10 1026.3 - 0.0
28/09:00am 15.9 13.1 6.9 55 4.4 ESE 11 17 6 9 1026.3 1026.1 0.0
28/08:30am 14.4 11.6 7.0 61 3.6 SE 11 15 6 8 1026.1 - 0.0
28/08:00am 13.0 9.4 6.8 66 3.0 SSE 15 20 8 11 1025.7 - 0.0
28/07:30am 12.2 9.1 7.1 71 2.5 SSE 13 17 7 9 1025.3 - 0.0
28/07:00am 11.5 8.3 7.0 74 2.2 SSE 13 15 7 8 1024.8 - 0.0
28/06:30am 11.1 8.0 7.2 77 1.9 SSE 13 17 7 9 1024.4 - 0.0
28/06:00am 10.5 7.3 6.8 78 1.7 SSE 13 15 7 8 1023.9 1023.6 0.0
28/05:30am 10.3 7.5 6.8 79 1.7 SSE 11 13 6 7 1023.5 - 0.0
28/05:00am 10.4 7.6 6.9 79 1.7 SSE 11 11 6 6 1023.2 - 0.0
28/04:30am 10.5 8.4 6.5 76 1.9 SSE 7 9 4 5 1023.2 - 0.0
28/04:00am 11.0 9.0 6.9 76 2.0 SE 7 11 4 6 1022.9 - 0.0
28/03:30am 11.3 8.9 7.0 75 2.1 SSE 9 11 5 6 1023.0 - 0.0
28/03:00am 11.9 9.5 6.8 71 2.4 SSE 9 9 5 5 1023.2 1023.0 0.0
28/02:30am 12.4 9.6 7.1 70 2.6 SSE 11 13 6 7 1023.4 - 0.0
28/02:00am 12.4 9.6 7.1 70 2.6 SSE 11 13 6 7 1023.6 - 0.0
28/01:30am 12.6 10.6 6.9 68 2.8 SE 7 9 4 5 1023.5 - 0.0
28/01:00am 12.7 10.6 6.7 67 2.9 SSE 7 9 4 5 1023.6 - 0.0
28/12:30am 13.1 11.0 6.5 64 3.2 SE 7 7 4 4 1023.6 - 0.0
28/12:00am 13.9 11.4 6.7 62 3.5 SE 9 11 5 6 1023.7 1023.5 0.0
 
Date/Time
EST
Temp
°C
App
Temp
°C
Dew
Point
Rel
Hum
%
Delta-T
°C
Wind Press
QNH
hPa
Press
MSL
hPa
Rain
since 9 am
mm
Dir
 
Spd
km/h
Gust
km/h
Spd
kts
Gust
kts
27/11:30pm 14.3 11.8 6.6 60 3.7 SE 9 11 5 6 1023.9 - 0.0
27/11:00pm 15.0 12.1 6.6 57 4.1 SE 11 13 6 7 1023.7 - 0.0
27/10:30pm 15.4 12.5 6.7 56 4.3 SE 11 13 6 7 1023.7 - 0.0
27/10:00pm 15.7 13.2 6.7 55 4.4 SSE 9 11 5 6 1023.7 - 0.0
27/09:30pm 16.1 13.2 6.5 53 4.7 SSE 11 13 6 7 1023.4 - 0.0
27/09:00pm 16.3 13.4 6.7 53 4.7 SSE 11 13 6 7 1023.4 1023.2 0.0
27/08:30pm 16.6 14.1 6.4 51 5.0 S 9 11 5 6 1023.2 - 0.0
27/08:00pm 17.8 15.2 6.0 46 5.8 SSE 9 11 5 6 1023.0 - 0.0
27/07:30pm 18.6 15.2 6.1 44 6.2 SSE 13 15 7 8 1022.6 - 0.0
27/07:00pm 19.3 15.9 5.7 41 6.7 SSE 13 19 7 10 1022.3 - 0.0
27/06:30pm 20.0 15.5 6.0 40 7.0 SE 19 26 10 14 1021.6 - 0.0
27/06:00pm 20.6 16.0 5.4 37 7.5 SE 19 30 10 16 1021.5 1021.2 0.0
27/05:30pm 21.3 17.4 5.2 35 8.0 SE 15 26 8 14 1021.2 - 0.0
27/05:00pm 21.7 17.0 5.2 34 8.2 SE 19 28 10 15 1020.9 - 0.0
27/04:30pm 21.9 17.0 4.9 33 8.4 SE 20 30 11 16 1020.5 - 0.0
27/04:00pm 22.5 16.4 5.0 32 8.7 S 26 33 14 18 1020.2 - 0.0
27/03:30pm 21.9 17.1 4.5 32 8.6 SSE 19 24 10 13 1020.2 - 0.0
27/03:00pm 21.1 16.0 4.2 33 8.2 SSE 20 32 11 17 1020.4 1020.2 0.0
27/02:30pm 21.5 16.7 4.6 33 8.3 S 19 24 10 13 1020.6 - 0.0
27/02:00pm 20.7 15.8 4.3 34 8.0 SSE 19 37 10 20 1020.7 - 0.0
27/01:30pm 20.1 14.6 3.8 34 7.8 SSE 22 32 12 17 1021.0 - 0.0
27/01:00pm 20.4 14.7 4.8 36 7.6 SSE 24 30 13 16 1021.5 - 0.0
27/12:30pm 19.9 14.9 4.4 36 7.5 SSE 20 30 11 16 1022.0 - 0.0
27/12:00pm 19.8 15.0 4.7 37 7.3 SSE 19 32 10 17 1022.3 1022.1 0.0
27/11:30am 19.4 14.9 6.2 42 6.6 SSE 19 26 10 14 1022.5 - 0.0
27/11:00am 18.8 13.9 5.3 41 6.6 SE 20 30 11 16 1022.7 - 0.0
27/10:30am 18.3 14.3 6.5 46 5.9 S 17 24 9 13 1022.9 - 0.0
27/10:00am 17.5 13.4 6.1 47 5.6 S 17 22 9 12 1022.8 - 0.0
27/09:30am 16.6 12.9 6.4 51 5.0 S 15 20 8 11 1022.7 - 0.0
27/09:00am 14.8 11.1 6.4 57 4.1 SSE 15 24 8 13 1022.6 1022.4 0.0
27/08:30am 13.4 9.6 5.6 59 3.7 SSE 15 20 8 11 1022.4 - 0.0
27/08:00am 12.3 8.0 5.2 62 3.3 S 17 20 9 11 1022.2 - 0.0
27/07:30am 11.1 8.0 5.4 68 2.6 S 11 13 6 7 1021.6 - 0.0
27/07:00am 9.8 7.0 5.2 73 2.1 S 9 13 5 7 1021.2 - 0.0
27/06:30am 9.1 6.6 4.7 74 2.0 S 7 9 4 5 1020.8 - 0.0
27/06:00am 9.2 6.3 4.8 74 2.0 SSW 9 11 5 6 1020.7 1020.5 0.0
27/05:30am 9.1 5.8 4.5 73 2.1 SSW 11 11 6 6 1020.5 - 0.0
27/05:00am 8.6 5.6 4.2 74 1.9 SW 9 9 5 5 1020.6 - 0.0
27/04:30am 8.6 6.1 3.8 72 2.1 WSW 6 7 3 4 1020.6 - 0.0
27/04:00am 8.9 6.2 3.9 71 2.2 WSW 7 9 4 5 1020.6 - 0.0
27/03:30am 9.0 6.2 3.4 68 2.4 WSW 7 9 4 5 1020.5 - 0.0
27/03:00am 9.6 6.5 3.8 67 2.5 WSW 9 9 5 5 1020.6 1020.4 0.0
27/02:30am 9.9 6.9 4.1 67 2.6 W 9 11 5 6 1020.8 - 0.0
27/02:00am 10.0 7.0 4.0 66 2.7 W 9 9 5 5 1021.0 - 0.0
27/01:30am 9.9 6.9 3.9 66 2.7 W 9 9 5 5 1021.2 - 0.0
27/01:00am 10.4 7.7 3.9 64 2.9 W 7 9 4 5 1021.4 - 0.0
27/12:30am 11.1 7.7 4.1 62 3.1 SW 11 13 6 7 1021.8 - 0.0
27/12:00am 11.1 8.1 3.9 61 3.2 WSW 9 9 5 5 1021.9 1021.7 0.0
 
Date/Time
EST
Temp
°C
App
Temp
°C
Dew
Point
Rel
Hum
%
Delta-T
°C
Wind Press
QNH
hPa
Press
MSL
hPa
Rain
since 9 am
mm
Dir
 
Spd
km/h
Gust
km/h
Spd
kts
Gust
kts
26/11:30pm 11.6 8.2 3.9 59 3.5 SW 11 11 6 6 1022.1 - 0.0
26/11:00pm 11.9 8.5 3.9 58 3.6 SW 11 11 6 6 1022.3 - 0.0
26/10:30pm 12.3 9.2 3.8 56 3.8 SW 9 9 5 5 1022.3 - 0.0
26/10:00pm 12.8 9.7 3.7 54 4.1 SSW 9 11 5 6 1022.3 - 0.0
26/09:30pm 13.2 10.0 3.3 51 4.5 SW 9 9 5 5 1022.0 - 0.0
26/09:00pm 14.0 10.5 3.5 49 4.8 SSW 11 11 6 6 1021.9 1021.7 0.0
26/08:30pm 14.2 11.1 3.4 48 4.9 S 9 11 5 6 1021.9 - 0.0
26/08:00pm 15.1 11.5 3.0 44 5.5 S 11 11 6 6 1021.6 - 0.0
26/07:30pm 16.1 12.1 2.9 41 6.0 S 13 15 7 8 1021.3 - 0.0
26/07:00pm 16.9 12.5 2.5 38 6.6 S 15 19 8 10 1020.9 - 0.0
26/06:30pm 17.6 12.1 2.0 35 7.1 S 20 28 11 15 1020.6 - 0.0
26/06:00pm 18.3 12.8 1.8 33 7.5 S 20 28 11 15 1020.3 1020.1 0.0
26/05:30pm 19.1 13.2 2.0 32 7.9 S 22 30 12 16 1019.9 - 0.0
26/05:00pm 19.5 12.9 1.9 31 8.1 S 26 35 14 19 1019.7 - 0.0
26/04:30pm 19.7 13.5 2.1 31 8.1 S 24 33 13 18 1019.6 - 0.0
26/04:00pm 19.9 13.2 1.4 29 8.5 SSW 26 35 14 19 1019.5 - 0.0
26/03:30pm 19.8 12.6 0.8 28 8.6 SSW 28 37 15 20 1019.6 - 0.0
26/03:00pm 20.4 14.1 1.8 29 8.6 SSW 24 39 13 21 1019.8 1019.6 0.0
26/02:30pm 19.4 13.1 1.4 30 8.2 S 24 35 13 19 1020.0 - 0.0
26/02:00pm 20.4 14.6 2.3 30 8.5 SW 22 35 12 19 1020.3 - 0.0
26/01:30pm 19.4 13.2 2.3 32 7.9 SSW 24 39 13 21 1020.6 - 0.0
26/01:00pm 19.0 13.5 2.0 32 7.8 SSW 20 32 11 17 1021.1 - 0.0
26/12:30pm 19.1 13.0 2.5 33 7.7 SSW 24 32 13 17 1021.6 - 0.0
26/12:00pm 18.1 12.6 1.6 33 7.4 SW 20 33 11 18 1022.2 1022.0 0.0
26/11:30am 18.1 12.8 3.2 37 7.0 SSW 20 30 11 16 1022.7 - 0.0
26/11:00am 18.0 11.8 2.3 35 7.2 S 24 33 13 18 1023.0 - 0.0
26/10:30am 17.1 10.4 1.5 35 7.0 S 26 33 14 18 1023.5 - 0.0
26/10:00am 16.6 10.2 1.1 35 6.8 S 24 30 13 16 1023.6 - 0.0
26/09:30am 15.6 10.1 1.7 39 6.2 S 20 28 11 15 1023.9 - 0.0
26/09:00am 14.2 8.2 1.2 41 5.6 S 22 28 12 15 1023.9 1023.6 0.0
26/08:30am 13.0 8.4 1.7 46 4.9 S 15 20 8 11 1024.0 - 0.0
26/08:00am 10.8 6.5 1.1 51 4.1 SSW 13 15 7 8 1023.9 - 0.0
26/07:30am 8.6 5.0 0.8 58 3.2 SW 9 11 5 6 1023.5 - 0.0
26/07:00am 6.9 3.7 0.8 65 2.4 W 7 9 4 5 1023.3 - 0.0
26/06:30am 6.6 3.0 0.5 65 2.4 W 9 11 5 6 1023.2 - 0.0
26/06:00am 6.4 3.1 0.1 64 2.4 WSW 7 7 4 4 1023.0 1022.8 0.0
26/05:30am 6.9 3.6 -0.1 61 2.7 WSW 7 7 4 4 1022.8 - 0.0
26/05:00am 7.7 4.0 0.0 58 3.0 SSW 9 11 5 6 1022.8 - 0.0
26/04:30am 8.3 4.6 0.1 56 3.3 SSW 9 11 5 6 1022.6 - 0.0
26/04:00am 8.6 4.8 -0.7 52 3.6 SSW 9 11 5 6 1022.5 - 0.0
26/03:30am 9.3 5.5 -0.8 49 4.0 S 9 11 5 6 1022.7 - 0.0
26/03:00am 10.9 6.3 -1.2 43 4.8 S 13 17 7 9 1023.0 1022.8 0.0
26/02:30am 11.8 6.4 -1.7 39 5.4 S 17 22 9 12 1023.3 - 0.0
26/02:00am 11.1 6.5 -0.7 44 4.8 S 13 17 7 9 1023.5 - 0.0
26/01:30am 9.9 5.8 -0.3 49 4.1 S 11 11 6 6 1023.7 - 0.0
26/01:00am 10.2 6.6 -1.8 43 4.7 SSW 7 9 4 5 1023.9 - 0.0
26/12:30am 11.2 7.2 -2.6 38 5.3 SSW 9 9 5 5 1024.1 - 0.0
26/12:00am 12.5 7.7 -2.5 35 5.9 S 13 15 7 8 1024.2 1023.9 0.0
 
Date/Time
EST
Temp
°C
App
Temp
°C
Dew
Point
Rel
Hum
%
Delta-T
°C
Wind Press
QNH
hPa
Press
MSL
hPa
Rain
since 9 am
mm
Dir
 
Spd
km/h
Gust
km/h
Spd
kts
Gust
kts
25/11:30pm 12.8 8.0 -2.6 34 6.0 S 13 17 7 9 1024.3 - 0.0
25/11:00pm 12.8 8.0 -2.6 34 6.0 S 13 13 7 7 1024.3 - 0.0
25/10:30pm 13.1 8.7 -2.4 34 6.1 S 11 13 6 7 1024.6 - 0.0
25/10:00pm 14.1 9.2 -3.2 30 6.8 SSW 13 15 7 8 1024.7 - 0.0
25/09:30pm 14.4 9.6 -2.9 30 6.9 SSW 13 15 7 8 1024.6 - 0.0
25/09:00pm 14.9 10.0 -3.0 29 7.1 S 13 13 7 7 1024.5 1024.2 0.0
25/08:30pm 15.9 11.0 -3.6 26 7.7 S 13 15 7 8 1024.3 - 0.0
25/08:00pm 16.6 11.7 -3.5 25 8.1 SSW 13 17 7 9 1024.2 - 0.0
25/07:30pm 17.6 12.7 -3.7 23 8.6 S 13 15 7 8 1024.0 - 0.0
25/07:00pm 18.5 13.5 -4.2 21 9.1 S 13 19 7 10 1023.7 - 0.0
25/06:30pm 19.8 13.9 -5.2 18 10.0 S 17 20 9 11 1023.3 - 0.0
25/06:00pm 20.9 14.0 -5.8 16 10.6 S 22 28 12 15 1023.2 1023.0 0.0
25/05:30pm 21.9 15.4 -5.9 15 11.2 S 20 28 11 15 1023.1 - 0.0
25/05:00pm 22.5 15.6 -6.3 14 11.6 S 22 30 12 16 1022.9 - 0.0

Other Formats:

Comma delimited format used in spreadsheet applications
http://www.bom.gov.au/fwo/IDQ60801/IDQ60801.95492.axf

JavaScript Object Notation format (JSON) in row-major order
http://www.bom.gov.au/fwo/IDQ60801/IDQ60801.95492.json